createdAt,value
2023-02-19T00:00:34.141Z,52.46
2023-02-19T00:03:05.154Z,52.52
2023-02-19T00:05:38.017Z,52.44
2023-02-19T00:08:09.085Z,52.43
2023-02-19T00:10:39.789Z,52.58
2023-02-19T00:13:10.526Z,52.71
2023-02-19T00:15:41.351Z,52.56
2023-02-19T00:18:12.115Z,52.53
2023-02-19T00:20:43.355Z,52.71
2023-02-19T00:23:14.031Z,52.62
2023-02-19T00:25:45.036Z,52.62
2023-02-19T00:28:15.799Z,52.71
2023-02-19T00:30:46.559Z,52.51
2023-02-19T00:33:18.274Z,52.58
2023-02-19T00:35:49.220Z,52.62
2023-02-19T00:38:20.162Z,52.77
2023-02-19T00:40:51.006Z,52.66
2023-02-19T00:43:21.777Z,52.74
2023-02-19T00:45:52.561Z,52.71
2023-02-19T00:48:23.375Z,52.89
2023-02-19T00:50:54.260Z,52.69
2023-02-19T00:53:25.206Z,52.81
2023-02-19T00:55:55.996Z,52.90
2023-02-19T00:58:26.783Z,53.12
2023-02-19T01:00:57.582Z,53.02
2023-02-19T01:03:28.896Z,52.93
2023-02-19T01:05:59.708Z,53.12
2023-02-19T01:08:31.407Z,53.09
2023-02-19T01:11:03.325Z,52.97
2023-02-19T01:13:34.792Z,53.05
2023-02-19T01:16:10.572Z,53.10
2023-02-19T01:18:41.688Z,53.00
2023-02-19T01:21:16.541Z,53.00
2023-02-19T01:23:47.330Z,53.02
2023-02-19T01:26:20.406Z,53.05
2023-02-19T01:28:51.799Z,53.12
2023-02-19T01:31:24.611Z,53.15
2023-02-19T01:33:57.323Z,53.13
2023-02-19T01:36:30.078Z,53.36
2023-02-19T01:39:04.097Z,53.25
2023-02-19T01:41:38.999Z,53.19
2023-02-19T01:44:24.506Z,53.23
2023-02-19T01:46:57.738Z,53.15
2023-02-19T01:49:32.957Z,53.23
2023-02-19T01:52:07.218Z,53.22
2023-02-19T01:54:41.874Z,53.24
2023-02-19T01:57:18.192Z,53.33
2023-02-19T01:59:52.361Z,53.29
2023-02-19T02:02:25.172Z,53.28
2023-02-19T02:04:56.566Z,53.42
2023-02-19T02:07:45.336Z,53.30
2023-02-19T02:10:22.415Z,53.41
2023-02-19T02:13:00.003Z,53.49
2023-02-19T02:15:37.633Z,53.56
2023-02-19T02:18:16.936Z,53.58
2023-02-19T02:21:05.677Z,53.63
2023-02-19T02:23:51.034Z,53.60
2023-02-19T02:26:44.894Z,53.57
2023-02-19T02:29:46.477Z,53.50
2023-02-19T02:32:23.235Z,53.66
2023-02-19T02:35:00.068Z,53.63
2023-02-19T02:37:35.973Z,53.62
2023-02-19T02:40:08.677Z,53.60
2023-02-19T02:42:41.943Z,53.73
2023-02-19T02:45:36.947Z,53.66
2023-02-19T02:48:28.556Z,53.67
2023-02-19T02:51:05.392Z,53.75
2023-02-19T02:54:00.251Z,53.73
2023-02-19T02:56:32.280Z,53.72
2023-02-19T02:59:05.324Z,53.72
2023-02-19T03:02:00.395Z,53.84
2023-02-19T03:04:59.356Z,53.81
2023-02-19T03:07:35.301Z,54.02
2023-02-19T03:10:09.819Z,53.91
2023-02-19T03:12:59.540Z,53.97
2023-02-19T03:15:52.858Z,53.94
2023-02-19T03:18:44.287Z,54.06
2023-02-19T03:21:18.272Z,54.00
2023-02-19T03:24:08.666Z,54.08
2023-02-19T03:26:42.054Z,53.99
2023-02-19T03:29:24.157Z,54.15
2023-02-19T03:31:58.340Z,54.05
2023-02-19T03:34:32.620Z,54.08
2023-02-19T03:37:10.195Z,54.18
2023-02-19T03:39:46.361Z,53.97
2023-02-19T03:42:26.106Z,54.10
2023-02-19T03:45:10.820Z,54.02
2023-02-19T03:47:49.933Z,53.95
2023-02-19T03:50:25.413Z,53.83
2023-02-19T03:53:05.812Z,53.87
2023-02-19T03:55:46.193Z,53.75
2023-02-19T03:58:22.652Z,53.77
2023-02-19T04:00:58.770Z,53.88
2023-02-19T04:03:35.336Z,53.77
2023-02-19T04:06:10.833Z,53.76
2023-02-19T04:08:45.421Z,53.81
2023-02-19T04:11:18.063Z,53.69
2023-02-19T04:13:52.521Z,53.77
2023-02-19T04:16:27.605Z,53.71
2023-02-19T04:19:03.510Z,53.80
2023-02-19T04:21:37.588Z,53.73
2023-02-19T04:24:13.844Z,53.73
2023-02-19T04:26:46.362Z,53.79
2023-02-19T04:29:17.046Z,53.72
2023-02-19T04:31:47.841Z,53.74
2023-02-19T04:34:18.570Z,53.89
2023-02-19T04:36:49.210Z,53.78
2023-02-19T04:39:20.124Z,53.74
2023-02-19T04:41:50.990Z,53.84
2023-02-19T04:44:21.911Z,53.69
2023-02-19T04:46:52.589Z,53.90
2023-02-19T04:49:23.523Z,53.75
2023-02-19T04:51:54.228Z,53.92
2023-02-19T04:54:25.178Z,53.81
2023-02-19T04:56:56.234Z,53.92
2023-02-19T04:59:26.983Z,53.93
2023-02-19T05:01:58.106Z,53.91
2023-02-19T05:04:28.868Z,54.04
2023-02-19T05:06:59.597Z,53.93
2023-02-19T05:09:30.247Z,54.05
2023-02-19T05:12:00.854Z,54.06
2023-02-19T05:14:31.526Z,53.95
2023-02-19T05:17:02.272Z,54.12
2023-02-19T05:19:33.134Z,54.13
2023-02-19T05:22:03.836Z,54.10
2023-02-19T05:24:34.553Z,54.26
2023-02-19T05:27:05.396Z,54.25
2023-02-19T05:29:36.135Z,54.22
2023-02-19T05:32:06.892Z,54.29
2023-02-19T05:34:37.606Z,54.41
2023-02-19T05:37:08.346Z,54.27
2023-02-19T05:39:40.166Z,54.41
2023-02-19T05:42:10.822Z,54.37
2023-02-19T05:44:41.483Z,54.24
2023-02-19T05:47:12.621Z,54.34
2023-02-19T05:49:43.349Z,54.28
2023-02-19T05:52:14.102Z,54.30
2023-02-19T05:54:44.848Z,54.14
2023-02-19T05:57:15.539Z,54.32
2023-02-19T05:59:46.162Z,54.19
2023-02-19T06:02:16.851Z,54.25
2023-02-19T06:04:47.503Z,54.08
2023-02-19T06:07:18.223Z,54.24
2023-02-19T06:09:51.108Z,54.13
2023-02-19T06:12:21.752Z,54.17
2023-02-19T06:14:52.694Z,54.17
2023-02-19T06:17:23.737Z,54.22
2023-02-19T06:19:54.779Z,54.17
2023-02-19T06:22:25.601Z,54.20
2023-02-19T06:24:56.345Z,54.23
2023-02-19T06:27:27.088Z,54.21
2023-02-19T06:29:57.834Z,54.40
2023-02-19T06:32:28.513Z,54.43
2023-02-19T06:34:59.313Z,54.52
2023-02-19T06:37:30.358Z,54.53
2023-02-19T06:40:01.103Z,54.63
2023-02-19T06:42:34.423Z,54.47
2023-02-19T06:45:05.336Z,54.51
2023-02-19T06:47:39.140Z,54.55
2023-02-19T06:50:10.748Z,54.58
2023-02-19T06:52:41.634Z,54.70
2023-02-19T06:55:13.598Z,54.65
2023-02-19T06:57:44.228Z,54.55
2023-02-19T07:00:16.390Z,54.67
2023-02-19T07:02:47.075Z,54.65
2023-02-19T07:05:17.991Z,54.53
2023-02-19T07:07:49.461Z,54.45
2023-02-19T07:10:20.733Z,54.55
2023-02-19T07:12:51.573Z,54.49
2023-02-19T07:15:22.424Z,54.50
2023-02-19T07:17:53.373Z,54.49
2023-02-19T07:20:24.111Z,54.49
2023-02-19T07:22:54.890Z,54.23
2023-02-19T07:25:25.630Z,54.39
2023-02-19T07:27:56.885Z,54.38
2023-02-19T07:30:27.733Z,54.39
2023-02-19T07:32:58.605Z,54.43
2023-02-19T07:35:30.203Z,54.68
2023-02-19T07:38:01.293Z,54.70
2023-02-19T07:40:32.499Z,54.74
2023-02-19T07:43:03.555Z,54.89
2023-02-19T07:45:34.740Z,54.87
2023-02-19T07:48:05.874Z,54.77
2023-02-19T07:50:36.736Z,54.81
2023-02-19T07:53:07.604Z,54.71
2023-02-19T07:55:38.530Z,54.63
2023-02-19T07:58:09.431Z,54.46
2023-02-19T08:00:40.973Z,54.13
2023-02-19T08:03:12.268Z,53.85
2023-02-19T08:05:45.225Z,53.56
2023-02-19T08:08:17.318Z,53.41
2023-02-19T08:11:05.632Z,53.07
2023-02-19T08:13:36.814Z,52.96
2023-02-19T08:16:26.605Z,52.77
2023-02-19T08:19:04.450Z,52.55
2023-02-19T08:21:35.474Z,52.33
2023-02-19T08:24:07.147Z,52.32
2023-02-19T08:26:38.650Z,52.06
2023-02-19T08:29:09.703Z,52.02
2023-02-19T08:31:40.840Z,51.92
2023-02-19T08:34:14.921Z,51.91
2023-02-19T08:36:45.965Z,51.92
2023-02-19T08:39:17.141Z,51.85
2023-02-19T08:41:49.244Z,51.81
2023-02-19T08:44:20.843Z,51.74
2023-02-19T08:46:54.016Z,51.77
2023-02-19T08:49:28.342Z,51.91
2023-02-19T08:51:59.563Z,52.01
2023-02-19T08:54:31.360Z,52.07
2023-02-19T08:57:05.479Z,52.07
2023-02-19T08:59:36.705Z,52.04
2023-02-19T09:02:07.668Z,52.03
2023-02-19T09:04:39.517Z,52.04
2023-02-19T09:07:11.198Z,52.01
2023-02-19T09:09:42.432Z,51.91
2023-02-19T09:12:14.742Z,52.04
2023-02-19T09:14:46.692Z,51.96
2023-02-19T09:17:17.822Z,51.91
2023-02-19T09:19:50.856Z,51.88
2023-02-19T09:22:22.693Z,51.88
2023-02-19T09:24:53.930Z,51.83
2023-02-19T09:27:24.867Z,51.64
2023-02-19T09:29:56.012Z,51.68
2023-02-19T09:32:27.602Z,51.83
2023-02-19T09:34:59.352Z,51.92
2023-02-19T09:37:32.025Z,52.09
2023-02-19T09:40:03.917Z,52.14
2023-02-19T09:42:35.743Z,52.16
2023-02-19T09:45:09.203Z,52.21
2023-02-19T09:47:40.542Z,52.30
2023-02-19T09:50:17.914Z,52.35
2023-02-19T09:52:53.446Z,52.35
2023-02-19T09:55:32.817Z,52.46
2023-02-19T09:58:10.036Z,52.43
2023-02-19T10:00:42.709Z,52.33
2023-02-19T10:03:18.600Z,52.45
2023-02-19T10:05:49.932Z,52.40
2023-02-19T10:08:22.443Z,52.27
2023-02-19T10:10:54.466Z,52.28
2023-02-19T10:13:31.407Z,52.32
2023-02-19T10:16:06.520Z,52.23
2023-02-19T10:18:42.564Z,52.30
2023-02-19T10:21:20.666Z,52.27
2023-02-19T10:23:55.161Z,52.14
2023-02-19T10:26:28.285Z,52.01
2023-02-19T10:28:59.516Z,52.19
2023-02-19T10:31:32.389Z,52.17
2023-02-19T10:34:08.771Z,52.07
2023-02-19T10:36:45.314Z,52.11
2023-02-19T10:39:37.109Z,52.18
2023-02-19T10:42:15.287Z,52.24
2023-02-19T10:44:49.211Z,52.38
2023-02-19T10:47:23.457Z,52.22
2023-02-19T10:49:59.338Z,52.29
2023-02-19T10:52:34.517Z,52.49
2023-02-19T10:55:26.720Z,52.23
2023-02-19T10:57:58.439Z,52.49
2023-02-19T11:00:31.481Z,52.50
2023-02-19T11:03:22.885Z,52.56
2023-02-19T11:06:02.988Z,52.56
2023-02-19T11:08:47.300Z,52.60
2023-02-19T11:11:36.663Z,52.41
2023-02-19T11:14:15.866Z,52.32
2023-02-19T11:16:52.126Z,52.61
2023-02-19T11:19:41.152Z,52.32
2023-02-19T11:22:33.412Z,52.33
2023-02-19T11:25:25.673Z,52.38
2023-02-19T11:28:08.274Z,52.25
2023-02-19T11:30:42.623Z,52.27
2023-02-19T11:33:28.587Z,52.51
2023-02-19T11:39:20.759Z,52.33
2023-02-19T11:42:12.654Z,52.32
2023-02-19T11:44:53.397Z,52.31
2023-02-19T11:47:56.780Z,52.11
2023-02-19T11:50:36.574Z,52.38
2023-02-19T11:53:21.834Z,52.28
2023-02-19T11:56:05.040Z,52.40
2023-02-19T11:58:57.976Z,52.29
2023-02-19T12:01:49.790Z,52.39
2023-02-19T12:04:49.151Z,52.30
2023-02-19T12:07:31.245Z,52.31
2023-02-19T12:10:15.170Z,52.32
2023-02-19T12:12:57.556Z,52.46
2023-02-19T12:15:47.946Z,52.31
2023-02-19T12:18:48.920Z,52.53
2023-02-19T12:21:37.422Z,52.43
2023-02-19T12:24:26.836Z,52.36
2023-02-19T12:27:12.225Z,52.30
2023-02-19T12:30:14.800Z,52.63
2023-02-19T12:32:59.717Z,52.30
2023-02-19T12:35:48.530Z,52.40
2023-02-19T12:38:28.732Z,52.25
2023-02-19T12:41:13.310Z,52.25
2023-02-19T12:43:52.629Z,52.22
2023-02-19T12:46:28.372Z,52.17
2023-02-19T12:49:02.939Z,52.21
2023-02-19T12:51:41.971Z,52.01
2023-02-19T12:54:20.199Z,52.10
2023-02-19T12:56:56.707Z,52.08
2023-02-19T12:59:34.419Z,52.08
2023-02-19T13:02:16.323Z,51.94
2023-02-19T13:04:52.960Z,51.63
2023-02-19T13:07:29.512Z,51.79
2023-02-19T13:10:07.843Z,51.95
2023-02-19T13:12:41.893Z,51.88
2023-02-19T13:15:19.897Z,51.83
2023-02-19T13:17:55.615Z,51.82
2023-02-19T13:20:32.749Z,51.73
2023-02-19T13:23:27.136Z,51.83
2023-02-19T13:26:14.358Z,51.86
2023-02-19T13:29:00.573Z,51.89
2023-02-19T13:31:59.313Z,52.05
2023-02-19T13:34:47.890Z,52.10
2023-02-19T13:37:20.646Z,52.00
2023-02-19T13:39:53.897Z,52.01
2023-02-19T13:42:32.598Z,51.93
2023-02-19T13:45:06.443Z,51.96
2023-02-19T13:48:03.268Z,51.92
2023-02-19T13:50:35.753Z,51.76
2023-02-19T13:53:44.933Z,51.82
2023-02-19T13:56:39.181Z,51.60
2023-02-19T13:59:36.100Z,51.88
2023-02-19T14:02:15.984Z,51.91
2023-02-19T14:05:00.258Z,51.73
2023-02-19T14:07:54.680Z,51.80
2023-02-19T14:11:02.710Z,51.73
2023-02-19T14:14:06.529Z,51.62
2023-02-19T14:16:55.999Z,51.78
2023-02-19T14:19:53.719Z,51.65
2023-02-19T14:23:10.872Z,51.66
2023-02-19T14:26:05.262Z,51.58
2023-02-19T14:28:42.123Z,51.53
2023-02-19T14:31:23.761Z,51.53
2023-02-19T14:33:56.676Z,51.37
2023-02-19T14:36:50.295Z,51.29
2023-02-19T14:39:25.585Z,51.29
2023-02-19T14:41:58.773Z,51.37
2023-02-19T14:44:32.860Z,51.32
2023-02-19T14:47:09.146Z,51.14
2023-02-19T14:49:44.554Z,51.21
2023-02-19T14:52:21.695Z,51.27
2023-02-19T14:54:55.595Z,51.32
2023-02-19T14:57:30.113Z,51.33
2023-02-19T15:00:02.922Z,51.24
2023-02-19T15:02:43.058Z,51.11
2023-02-19T15:05:20.602Z,51.12
2023-02-19T15:07:52.373Z,51.17
2023-02-19T15:10:23.834Z,51.21
2023-02-19T15:12:58.841Z,51.12
2023-02-19T15:15:32.871Z,51.03
2023-02-19T15:18:05.481Z,51.07
2023-02-19T15:20:39.789Z,50.97
2023-02-19T15:23:18.152Z,50.91
2023-02-19T15:25:50.204Z,51.26
2023-02-19T15:28:29.997Z,51.23
2023-02-19T15:31:14.842Z,51.11
2023-02-19T15:33:53.467Z,51.13
2023-02-19T15:36:31.425Z,51.00
2023-02-19T15:39:04.031Z,51.06
2023-02-19T15:41:38.121Z,51.03
2023-02-19T15:44:23.581Z,51.06
2023-02-19T15:46:55.109Z,51.01
2023-02-19T15:49:33.377Z,50.86
2023-02-19T15:52:10.233Z,50.80
2023-02-19T15:54:51.978Z,50.77
2023-02-19T15:57:29.248Z,50.81
2023-02-19T16:00:04.885Z,50.75
2023-02-19T16:02:37.325Z,50.89
2023-02-19T16:05:17.989Z,50.67
2023-02-19T16:07:48.909Z,50.92
2023-02-19T16:10:25.024Z,50.62
2023-02-19T16:13:01.080Z,50.87
2023-02-19T16:15:34.418Z,50.73
2023-02-19T16:18:06.093Z,50.88
2023-02-19T16:20:38.160Z,50.96
2023-02-19T16:23:15.256Z,50.86
2023-02-19T16:25:48.170Z,50.93
2023-02-19T16:28:23.260Z,51.09
2023-02-19T16:31:00.985Z,51.07
2023-02-19T16:33:38.920Z,51.09
2023-02-19T16:36:35.792Z,51.15
2023-02-19T16:39:21.276Z,51.07
2023-02-19T16:42:24.031Z,51.12
2023-02-19T16:44:54.914Z,51.44
2023-02-19T16:47:47.611Z,51.31
2023-02-19T16:50:21.626Z,51.39
2023-02-19T16:52:58.242Z,51.40
2023-02-19T16:55:30.058Z,51.55
2023-02-19T16:58:01.279Z,51.27
2023-02-19T17:00:33.316Z,51.55
2023-02-19T17:03:09.175Z,51.73
2023-02-19T17:05:41.512Z,51.73
2023-02-19T17:08:35.106Z,51.64
2023-02-19T17:11:08.841Z,51.58
2023-02-19T17:13:38.297Z,51.63
2023-02-19T17:16:13.623Z,51.58
2023-02-19T17:18:44.678Z,51.52
2023-02-19T17:21:19.868Z,51.66
2023-02-19T17:23:51.232Z,51.63
2023-02-19T17:26:25.293Z,51.66
2023-02-19T17:28:59.696Z,51.80
2023-02-19T17:31:31.107Z,51.73
2023-02-19T17:34:02.367Z,51.74
2023-02-19T17:36:35.337Z,51.62
2023-02-19T17:39:08.773Z,51.80
2023-02-19T17:41:40.164Z,51.90
2023-02-19T17:44:11.535Z,51.57
2023-02-19T17:46:42.805Z,51.64
2023-02-19T17:49:15.716Z,51.80
2023-02-19T17:51:46.769Z,51.69
2023-02-19T17:54:17.924Z,51.46
2023-02-19T17:56:49.359Z,51.78
2023-02-19T17:59:20.473Z,51.59
2023-02-19T18:01:51.548Z,51.70
2023-02-19T18:04:22.477Z,51.49
2023-02-19T18:06:54.248Z,51.60
2023-02-19T18:09:25.321Z,51.31
2023-02-19T18:11:56.290Z,51.40
2023-02-19T18:14:27.512Z,51.40
2023-02-19T18:16:58.633Z,51.43
2023-02-19T18:19:30.234Z,51.28
2023-02-19T18:22:01.199Z,51.22
2023-02-19T18:24:32.121Z,51.27
2023-02-19T18:27:03.497Z,51.32
2023-02-19T18:29:35.182Z,51.31
2023-02-19T18:32:06.522Z,51.41
2023-02-19T18:34:40.115Z,51.32
2023-02-19T18:37:11.130Z,51.34
2023-02-19T18:39:44.039Z,51.27
2023-02-19T18:42:15.414Z,51.33
2023-02-19T18:44:49.310Z,51.31
2023-02-19T18:47:22.481Z,51.45
2023-02-19T18:49:56.022Z,51.36
2023-02-19T18:52:30.081Z,51.50
2023-02-19T18:55:02.579Z,51.46
2023-02-19T18:57:36.688Z,51.50
2023-02-19T19:00:12.069Z,51.40
2023-02-19T19:02:49.670Z,51.42
2023-02-19T19:05:23.848Z,51.48
2023-02-19T19:08:00.060Z,51.36
2023-02-19T19:10:32.356Z,51.32
2023-02-19T19:13:03.708Z,51.36
2023-02-19T19:15:35.394Z,51.38
2023-02-19T19:18:07.101Z,51.51
2023-02-19T19:20:38.191Z,51.43
2023-02-19T19:23:09.444Z,51.36
2023-02-19T19:25:41.046Z,51.35
2023-02-19T19:28:12.560Z,51.18
2023-02-19T19:30:43.796Z,51.27
2023-02-19T19:33:17.729Z,51.28
2023-02-19T19:35:48.862Z,51.15
2023-02-19T19:38:25.332Z,51.05
2023-02-19T19:40:57.692Z,51.03
2023-02-19T19:43:31.894Z,50.97
2023-02-19T19:46:04.698Z,50.85
2023-02-19T19:48:36.055Z,50.92
2023-02-19T19:51:08.200Z,50.89
2023-02-19T19:53:39.377Z,50.89
2023-02-19T19:56:11.319Z,50.95
2023-02-19T19:58:42.584Z,51.06
2023-02-19T20:01:15.181Z,51.08
2023-02-19T20:03:46.445Z,51.04
2023-02-19T20:06:24.221Z,51.24
2023-02-19T20:08:55.913Z,51.14
2023-02-19T20:11:27.089Z,51.19
2023-02-19T20:13:58.334Z,51.25
2023-02-19T20:16:30.464Z,51.28
2023-02-19T20:19:01.918Z,51.44
2023-02-19T20:21:33.948Z,51.29
2023-02-19T20:24:05.584Z,51.24
2023-02-19T20:26:37.140Z,51.45
2023-02-19T20:29:08.218Z,51.32
2023-02-19T20:31:39.294Z,51.53
2023-02-19T20:34:10.434Z,51.73
2023-02-19T20:36:47.040Z,51.73
2023-02-19T20:39:18.923Z,51.61
2023-02-19T20:41:53.329Z,51.71
2023-02-19T20:44:24.878Z,51.64
2023-02-19T20:46:57.461Z,51.59
2023-02-19T20:49:30.661Z,51.57
2023-02-19T20:52:03.461Z,51.62
2023-02-19T20:54:36.123Z,51.66
2023-02-19T20:57:08.114Z,51.59
2023-02-19T20:59:40.876Z,51.49
2023-02-19T21:02:18.145Z,51.62
2023-02-19T21:04:49.322Z,51.56
2023-02-19T21:07:20.513Z,51.69
2023-02-19T21:09:52.266Z,51.75
2023-02-19T21:12:26.484Z,51.55
2023-02-19T21:14:57.910Z,51.56
2023-02-19T21:17:29.575Z,51.73
2023-02-19T21:20:00.534Z,51.50
2023-02-19T21:22:31.688Z,51.61
2023-02-19T21:25:02.658Z,51.48
2023-02-19T21:27:33.690Z,51.82
2023-02-19T21:30:05.074Z,51.88
2023-02-19T21:32:36.017Z,51.79
2023-02-19T21:35:07.801Z,51.77
2023-02-19T21:37:42.355Z,51.79
2023-02-19T21:40:15.431Z,51.95
2023-02-19T21:42:46.388Z,51.93
2023-02-19T21:45:17.529Z,51.98
2023-02-19T21:47:52.125Z,52.11
2023-02-19T21:50:23.821Z,52.18
2023-02-19T21:52:55.299Z,52.18
2023-02-19T21:55:26.441Z,51.98
2023-02-19T21:57:57.819Z,52.00
2023-02-19T22:00:28.639Z,51.98
2023-02-19T22:02:59.602Z,52.18
2023-02-19T22:05:30.498Z,52.02
2023-02-19T22:08:01.780Z,51.84
2023-02-19T22:10:32.707Z,51.78
2023-02-19T22:13:03.550Z,51.74
2023-02-19T22:15:34.783Z,51.70
2023-02-19T22:18:05.952Z,51.41
2023-02-19T22:20:38.530Z,51.38
2023-02-19T22:23:10.166Z,51.37
2023-02-19T22:25:40.883Z,51.14
2023-02-19T22:28:11.659Z,51.31
2023-02-19T22:30:43.154Z,51.18
2023-02-19T22:33:14.058Z,51.06
2023-02-19T22:35:45.302Z,51.11
2023-02-19T22:38:16.054Z,50.95
2023-02-19T22:40:46.883Z,51.05
2023-02-19T22:43:21.230Z,51.10
2023-02-19T22:45:52.014Z,50.84
2023-02-19T22:48:30.042Z,50.87
2023-02-19T22:51:02.543Z,50.74
2023-02-19T22:53:33.446Z,50.60
2023-02-19T22:56:04.290Z,50.63
2023-02-19T22:58:35.192Z,50.76
2023-02-19T23:01:06.509Z,50.52
2023-02-19T23:03:45.546Z,50.75
2023-02-19T23:06:26.115Z,50.45
2023-02-19T23:08:59.063Z,50.54
2023-02-19T23:11:33.812Z,50.54
2023-02-19T23:14:05.275Z,50.53
2023-02-19T23:16:37.564Z,50.55
2023-02-19T23:19:11.950Z,50.41
2023-02-19T23:21:45.996Z,50.34
2023-02-19T23:24:17.746Z,50.31
2023-02-19T23:26:50.811Z,50.47
2023-02-19T23:29:25.302Z,50.38
2023-02-19T23:31:57.247Z,50.28
2023-02-19T23:34:30.221Z,50.33
2023-02-19T23:37:02.458Z,50.39
2023-02-19T23:39:33.410Z,50.29
2023-02-19T23:42:04.272Z,50.39
2023-02-19T23:44:35.284Z,50.36
2023-02-19T23:47:06.331Z,50.41
2023-02-19T23:49:38.055Z,50.35
2023-02-19T23:52:10.544Z,50.35
2023-02-19T23:54:42.553Z,50.28
2023-02-19T23:57:15.215Z,50.29
2023-02-19T23:59:50.152Z,50.45
